• Join FlightAware (Why Join?)
  • Login
  • US Flag 
Rudolph Flight #1: Arrived! 
11:37PM EST


 

Airport Tracker/Info


-or-


 

Live Flight TrackerFlight Track Log ✈ CSN6923 ✈ 10-Apr-2013 ✈ ZGSZ / SZX - ZPPP / KMG

Flight Track Log - Related Links

Times and Time Zones

All times are in EDT time to prevent confusion due to time zone crossing. See the CSN6923 flight status page for this flight to view local times or setup timezone preferences in your user account.

Time Position Orientation Groundspeed Altitude Reporting Facility
EDT Latitude Longitude Course Direction KTS MPH feet Rate Location/Type
07:12AM 22.6687 113.7024 286° West  Level Estimated
07:13AM 22.6978 113.5923 286° West  Level Estimated
07:14AM 22.7269 113.4821 286° West  Level Estimated
07:15AM 22.7558 113.3719 286° West  Level Estimated
07:16AM 22.7847 113.2617 286° West  Level Estimated
07:17AM 22.8136 113.1514 286° West  Level Estimated
07:18AM 22.8423 113.0411 286° West  Level Estimated
07:19AM 22.8710 112.9307 286° West  Level Estimated
07:20AM 22.8996 112.8203 286° West  Level Estimated
07:21AM 22.9281 112.7098 286° West  Level Estimated
07:22AM 22.9566 112.5993 286° West  Level Estimated
07:23AM 22.9849 112.4887 286° West  Level Estimated
07:24AM 23.0132 112.3781 286° West  Level Estimated
07:25AM 23.0415 112.2675 286° West  Level Estimated
07:26AM 23.0696 112.1568 285° West  Level Estimated
07:27AM 23.0977 112.0460 285° West  Level Estimated
07:28AM 23.1256 111.9352 285° West  Level Estimated
07:29AM 23.1535 111.8244 285° West  Level Estimated
07:30AM 23.1814 111.7135 285° West  Level Estimated
07:31AM 23.2091 111.6026 285° West  Level Estimated
07:32AM 23.2368 111.4916 285° West  Level Estimated
07:33AM 23.2644 111.3806 285° West  Level Estimated
07:34AM 23.2919 111.2695 285° West  Level Estimated
07:35AM 23.3193 111.1584 285° West  Level Estimated
07:36AM 23.3467 111.0472 285° West  Level Estimated
07:37AM 23.3740 110.9360 285° West  Level Estimated
07:38AM 23.4012 110.8248 285° West  Level Estimated
07:39AM 23.4283 110.7134 285° West  Level Estimated
07:40AM 23.4554 110.6021 285° West  Level Estimated
07:41AM 23.4823 110.4907 285° West  Level Estimated
07:42AM 23.5092 110.3793 285° West  Level Estimated
07:43AM 23.5360 110.2678 285° West  Level Estimated
07:44AM 23.5628 110.1563 285° West  Level Estimated
07:45AM 23.5894 110.0447 285° West  Level Estimated
07:46AM 23.6160 109.9331 285° West  Level Estimated
07:47AM 23.6425 109.8214 285° West  Level Estimated
07:48AM 23.6689 109.7097 284° West  Level Estimated
07:49AM 23.6952 109.5980 284° West  Level Estimated
07:50AM 23.7215 109.4862 284° West  Level Estimated
07:51AM 23.7476 109.3743 284° West  Level Estimated
07:52AM 23.7737 109.2624 284° West  Level Estimated
07:53AM 23.7997 109.1505 284° West  Level Estimated
07:54AM 23.8257 109.0385 284° West  Level Estimated
07:55AM 23.8515 108.9265 284° West  Level Estimated
07:56AM 23.8773 108.8144 284° West  Level Estimated
07:57AM 23.9030 108.7023 284° West  Level Estimated
07:58AM 23.9286 108.5901 284° West  Level Estimated
07:59AM 23.9541 108.4780 284° West  Level Estimated
08:00AM 23.9795 108.3657 284° West  Level Estimated
08:01AM 24.0049 108.2534 284° West  Level Estimated
08:02AM 24.0302 108.1411 284° West  Level Estimated
08:03AM 24.0554 108.0287 284° West  Level Estimated
08:04AM 24.0805 107.9163 284° West  Level Estimated
08:05AM 24.1055 107.8038 284° West  Level Estimated
08:06AM 24.1304 107.6913 284° West  Level Estimated
08:07AM 24.1553 107.5788 284° West  Level Estimated
08:08AM 24.1801 107.4662 284° West  Level Estimated
08:09AM 24.2048 107.3535 284° West  Level Estimated
08:10AM 24.2294 107.2408 283° West  Level Estimated
08:11AM 24.2540 107.1281 283° West  Level Estimated
08:12AM 24.2784 107.0153 283° West  Level Estimated
08:13AM 24.3028 106.9025 283° West  Level Estimated
08:14AM 24.3271 106.7897 283° West  Level Estimated
08:15AM 24.3513 106.6768 283° West  Level Estimated
08:16AM 24.3754 106.5638 283° West  Level Estimated
08:17AM 24.3994 106.4508 283° West  Level Estimated
08:18AM 24.4234 106.3378 283° West  Level Estimated
08:19AM 24.4472 106.2247 283° West  Level Estimated
08:20AM 24.4710 106.1116 283° West  Level Estimated
08:21AM 24.4947 105.9985 283° West  Level Estimated
08:22AM 24.5183 105.8853 283° West  Level Estimated
08:23AM 24.5418 105.7720 283° West  Level Estimated
08:24AM 24.5653 105.6587 283° West  Level Estimated
08:25AM 24.5886 105.5454 283° West  Level Estimated
08:26AM 24.6119 105.4320 283° West  Level Estimated
08:27AM 24.6351 105.3186 283° West  Level Estimated
08:28AM 24.6582 105.2052 283° West  Level Estimated
08:29AM 24.6812 105.0917 283° West  Level Estimated
08:30AM 24.7042 104.9781 283° West  Level Estimated
08:31AM 24.7270 104.8645 283° West  Level Estimated
08:32AM 24.7498 104.7509 282° West  Level Estimated
08:33AM 24.7725 104.6373 282° West  Level Estimated
08:34AM 24.7951 104.5236 282° West  Level Estimated
08:35AM 24.8176 104.4098 282° West  Level Estimated
08:36AM 24.8400 104.2960 282° West  Level Estimated
08:37AM 24.8623 104.1822 282° West  Level Estimated
08:38AM 24.8846 104.0683 282° West  Level Estimated
08:39AM 24.9067 103.9544 282° West  Level Estimated
08:40AM 24.9288 103.8405 282° West  Level Estimated
08:41AM 24.9508 103.7265 282° West  Level Estimated
08:42AM 24.9727 103.6124 282° West  Level Estimated
08:43AM 24.9945 103.4984 282° West  Level Estimated
08:44AM 25.0162 103.3843 282° West  Level Estimated
08:45AM 25.0379 103.2701 282° West  Level Estimated
08:46AM 25.0594 103.1559 282° West  Level Estimated
08:47AM 25.0809 103.0417 282° West  Level Estimated
08:48AM 25.1019 102.9292 282° West  Level Estimated
08:49AM 25.1019 102.9292 326° Northwest  Level Estimated
08:50AM 25.1019 102.9292 326° Northwest  Level Estimated
08:51AM 25.1019 102.9292 326° Northwest  Level Estimated
08:52AM 25.1019 102.9292 326° Northwest  Level Estimated
08:53AM 25.1019 102.9292 326° Northwest  Level Estimated
08:54AM 25.1019 102.9292 326° Northwest  Level Estimated
08:55AM 25.1019 102.9292 326° Northwest  Level Estimated
08:56AM 25.1019 102.9292 326° Northwest  Level Estimated
08:57AM 25.1019 102.9292 326° Northwest  Level Estimated
08:58AM 25.1019 102.9292 326° Northwest  Level Estimated
08:59AM 25.1019 102.9292 326° Northwest  Level Estimated
09:00AM 25.1019 102.9292 326° Northwest  Level Estimated
09:01AM 25.1019 102.9292 326° Northwest  Level Estimated
09:02AM 25.1019 102.9292 326° Northwest  Level Estimated
09:03AM 25.1019 102.9292 326° Northwest  Level Estimated
09:04AM 25.1019 102.9292 326° Northwest  Level Estimated